Terminal Aerodrome Forecast
Issued by NWS Cleveland, OH

Home | Current Version | Previous Version | Text Only | Print | Product List | Glossary On
Versions: 1 2 3 4 5 6 7 8 9 10 11 12 13 14 15 16
000
FTUS41 KCLE 071300 AAA
TAFMFD
TAF AMD
KMFD 071300Z 0713/0812 20010G16KT P6SM SCT018 BKN200
      TEMPO 0713/0715 BKN018
     FM071500 20012KT P6SM SCT020 BKN150
      TEMPO 0715/0717 BKN020
     FM071700 21010G20KT P6SM VCSH BKN030 OVC060
     FM072000 23014KT P6SM -SHRA VCTS OVC035CB
      TEMPO 0720/0724 3SM -TSRA BR BKN015 OVC020CB
     FM080100 30008KT 3SM -SHRA BR OVC007
     FM080400 34006KT 5SM -SHRA BR OVC007=

USA.gov is the U.S. government's official web portal to all federal, state and local government web resources and services.